sensor_id;sensor_type;location;lat;lon;timestamp;P1;durP1;ratioP1;P2;durP2;ratioP2
7807;SDS011;3949;49.254;8.894;2023-06-24T00:02:12;4.97;;;4.47;;
7807;SDS011;3949;49.254;8.894;2023-06-24T00:04:38;4.70;;;4.30;;
7807;SDS011;3949;49.254;8.894;2023-06-24T00:07:04;4.93;;;4.47;;
7807;SDS011;3949;49.254;8.894;2023-06-24T00:09:30;5.30;;;4.47;;
7807;SDS011;3949;49.254;8.894;2023-06-24T00:11:56;6.57;;;4.60;;
7807;SDS011;3949;49.254;8.894;2023-06-24T00:14:26;5.20;;;4.77;;
7807;SDS011;3949;49.254;8.894;2023-06-24T00:16:52;4.43;;;4.03;;
7807;SDS011;3949;49.254;8.894;2023-06-24T00:19:22;4.33;;;3.97;;
7807;SDS011;3949;49.254;8.894;2023-06-24T00:21:49;4.90;;;4.40;;
7807;SDS011;3949;49.254;8.894;2023-06-24T00:24:18;5.13;;;4.60;;
7807;SDS011;3949;49.254;8.894;2023-06-24T00:26:48;5.47;;;4.87;;
7807;SDS011;3949;49.254;8.894;2023-06-24T00:29:14;5.87;;;5.00;;
7807;SDS011;3949;49.254;8.894;2023-06-24T00:31:40;5.10;;;4.70;;
7807;SDS011;3949;49.254;8.894;2023-06-24T00:34:06;5.17;;;4.73;;
7807;SDS011;3949;49.254;8.894;2023-06-24T00:36:32;5.20;;;4.80;;
7807;SDS011;3949;49.254;8.894;2023-06-24T00:38:59;5.87;;;5.27;;
7807;SDS011;3949;49.254;8.894;2023-06-24T00:41:29;5.47;;;4.70;;
7807;SDS011;3949;49.254;8.894;2023-06-24T00:43:55;4.73;;;4.33;;
7807;SDS011;3949;49.254;8.894;2023-06-24T00:46:22;4.97;;;4.47;;
7807;SDS011;3949;49.254;8.894;2023-06-24T00:48:50;5.87;;;5.27;;
7807;SDS011;3949;49.254;8.894;2023-06-24T00:51:16;5.50;;;5.00;;
7807;SDS011;3949;49.254;8.894;2023-06-24T00:53:44;5.57;;;5.07;;
7807;SDS011;3949;49.254;8.894;2023-06-24T00:56:10;5.77;;;5.03;;
7807;SDS011;3949;49.254;8.894;2023-06-24T00:58:38;5.63;;;5.13;;
7807;SDS011;3949;49.254;8.894;2023-06-24T01:01:04;5.80;;;5.03;;
7807;SDS011;3949;49.254;8.894;2023-06-24T01:03:33;5.67;;;4.77;;
7807;SDS011;3949;49.254;8.894;2023-06-24T01:06:00;5.30;;;4.90;;
7807;SDS011;3949;49.254;8.894;2023-06-24T01:08:26;5.93;;;5.43;;
7807;SDS011;3949;49.254;8.894;2023-06-24T01:10:53;5.53;;;5.03;;
7807;SDS011;3949;49.254;8.894;2023-06-24T01:13:19;5.20;;;4.70;;
7807;SDS011;3949;49.254;8.894;2023-06-24T01:15:45;5.97;;;5.47;;
7807;SDS011;3949;49.254;8.894;2023-06-24T01:18:13;5.37;;;4.87;;
7807;SDS011;3949;49.254;8.894;2023-06-24T01:23:19;5.60;;;5.10;;
7807;SDS011;3949;49.254;8.894;2023-06-24T01:34:17;5.20;;;4.80;;
7807;SDS011;3949;49.254;8.894;2023-06-24T01:36:50;5.20;;;4.70;;
7807;SDS011;3949;49.254;8.894;2023-06-24T01:39:19;5.60;;;5.10;;
7807;SDS011;3949;49.254;8.894;2023-06-24T01:41:47;5.47;;;4.97;;
7807;SDS011;3949;49.254;8.894;2023-06-24T01:44:15;5.60;;;5.10;;
7807;SDS011;3949;49.254;8.894;2023-06-24T01:46:43;5.20;;;4.70;;
7807;SDS011;3949;49.254;8.894;2023-06-24T01:49:11;5.03;;;4.60;;
7807;SDS011;3949;49.254;8.894;2023-06-24T01:51:39;5.53;;;5.03;;
7807;SDS011;3949;49.254;8.894;2023-06-24T01:54:06;5.27;;;4.77;;
7807;SDS011;3949;49.254;8.894;2023-06-24T01:56:33;6.23;;;5.63;;
7807;SDS011;3949;49.254;8.894;2023-06-24T01:59:00;6.03;;;5.40;;
7807;SDS011;3949;49.254;8.894;2023-06-24T02:01:26;5.63;;;5.13;;
7807;SDS011;3949;49.254;8.894;2023-06-24T02:03:53;7.97;;;4.60;;
7807;SDS011;3949;49.254;8.894;2023-06-24T02:06:20;5.83;;;5.33;;
7807;SDS011;3949;49.254;8.894;2023-06-24T02:08:48;4.87;;;4.33;;
7807;SDS011;3949;49.254;8.894;2023-06-24T02:11:15;5.80;;;5.20;;
7807;SDS011;3949;49.254;8.894;2023-06-24T02:13:42;5.40;;;4.90;;
7807;SDS011;3949;49.254;8.894;2023-06-24T02:16:08;5.47;;;4.97;;
7807;SDS011;3949;49.254;8.894;2023-06-24T02:18:35;6.97;;;5.50;;
7807;SDS011;3949;49.254;8.894;2023-06-24T02:21:02;4.87;;;4.47;;
7807;SDS011;3949;49.254;8.894;2023-06-24T02:23:29;5.67;;;5.17;;
7807;SDS011;3949;49.254;8.894;2023-06-24T02:25:55;5.60;;;5.00;;
7807;SDS011;3949;49.254;8.894;2023-06-24T02:28:22;5.50;;;5.00;;
7807;SDS011;3949;49.254;8.894;2023-06-24T02:30:49;5.03;;;4.63;;
7807;SDS011;3949;49.254;8.894;2023-06-24T02:33:15;5.67;;;5.17;;
7807;SDS011;3949;49.254;8.894;2023-06-24T02:35:41;6.13;;;5.47;;
7807;SDS011;3949;49.254;8.894;2023-06-24T02:38:07;5.97;;;5.47;;
7807;SDS011;3949;49.254;8.894;2023-06-24T02:40:33;5.33;;;4.83;;
7807;SDS011;3949;49.254;8.894;2023-06-24T02:42:59;6.50;;;5.10;;
7807;SDS011;3949;49.254;8.894;2023-06-24T02:45:25;5.70;;;5.20;;
7807;SDS011;3949;49.254;8.894;2023-06-24T02:47:52;5.90;;;5.10;;
7807;SDS011;3949;49.254;8.894;2023-06-24T02:50:18;5.47;;;4.97;;
7807;SDS011;3949;49.254;8.894;2023-06-24T02:52:45;5.80;;;5.30;;
7807;SDS011;3949;49.254;8.894;2023-06-24T02:55:11;5.83;;;5.30;;
7807;SDS011;3949;49.254;8.894;2023-06-24T02:57:37;6.67;;;6.07;;
7807;SDS011;3949;49.254;8.894;2023-06-24T03:00:04;6.63;;;6.03;;
7807;SDS011;3949;49.254;8.894;2023-06-24T03:02:33;7.03;;;6.43;;
7807;SDS011;3949;49.254;8.894;2023-06-24T03:05:00;7.07;;;6.37;;
7807;SDS011;3949;49.254;8.894;2023-06-24T03:07:27;6.50;;;5.90;;
7807;SDS011;3949;49.254;8.894;2023-06-24T03:09:53;5.60;;;5.10;;
7807;SDS011;3949;49.254;8.894;2023-06-24T03:12:19;6.00;;;5.47;;
7807;SDS011;3949;49.254;8.894;2023-06-24T03:14:45;5.77;;;5.17;;
7807;SDS011;3949;49.254;8.894;2023-06-24T03:17:11;6.57;;;5.83;;
7807;SDS011;3949;49.254;8.894;2023-06-24T03:19:37;6.13;;;5.60;;
7807;SDS011;3949;49.254;8.894;2023-06-24T03:22:03;6.43;;;5.90;;
7807;SDS011;3949;49.254;8.894;2023-06-24T03:24:29;6.10;;;5.50;;
7807;SDS011;3949;49.254;8.894;2023-06-24T03:26:55;5.00;;;4.50;;
7807;SDS011;3949;49.254;8.894;2023-06-24T03:29:22;6.77;;;6.17;;
7807;SDS011;3949;49.254;8.894;2023-06-24T03:31:49;5.67;;;5.17;;
7807;SDS011;3949;49.254;8.894;2023-06-24T03:34:15;6.40;;;5.87;;
7807;SDS011;3949;49.254;8.894;2023-06-24T03:36:41;6.10;;;5.57;;
7807;SDS011;3949;49.254;8.894;2023-06-24T03:39:07;5.70;;;5.10;;
7807;SDS011;3949;49.254;8.894;2023-06-24T03:41:33;5.57;;;5.07;;
7807;SDS011;3949;49.254;8.894;2023-06-24T03:44:00;5.90;;;5.30;;
7807;SDS011;3949;49.254;8.894;2023-06-24T03:46:26;5.50;;;5.03;;
7807;SDS011;3949;49.254;8.894;2023-06-24T03:48:57;5.83;;;5.30;;
7807;SDS011;3949;49.254;8.894;2023-06-24T03:51:23;5.33;;;4.83;;
7807;SDS011;3949;49.254;8.894;2023-06-24T03:53:49;7.10;;;6.07;;
7807;SDS011;3949;49.254;8.894;2023-06-24T03:56:16;6.07;;;5.50;;
7807;SDS011;3949;49.254;8.894;2023-06-24T03:58:42;6.07;;;5.47;;
7807;SDS011;3949;49.254;8.894;2023-06-24T04:01:09;6.53;;;6.00;;
7807;SDS011;3949;49.254;8.894;2023-06-24T04:03:35;6.00;;;5.40;;
7807;SDS011;3949;49.254;8.894;2023-06-24T04:06:01;5.87;;;5.37;;
7807;SDS011;3949;49.254;8.894;2023-06-24T04:08:27;6.27;;;5.77;;
7807;SDS011;3949;49.254;8.894;2023-06-24T04:10:59;6.63;;;5.93;;
7807;SDS011;3949;49.254;8.894;2023-06-24T04:13:25;5.70;;;5.20;;
7807;SDS011;3949;49.254;8.894;2023-06-24T04:15:51;7.43;;;6.20;;
7807;SDS011;3949;49.254;8.894;2023-06-24T04:18:18;6.17;;;5.40;;
7807;SDS011;3949;49.254;8.894;2023-06-24T04:20:44;6.00;;;5.40;;
7807;SDS011;3949;49.254;8.894;2023-06-24T04:23:10;6.20;;;5.60;;
7807;SDS011;3949;49.254;8.894;2023-06-24T04:25:36;5.83;;;5.30;;
7807;SDS011;3949;49.254;8.894;2023-06-24T04:28:02;6.57;;;5.97;;
7807;SDS011;3949;49.254;8.894;2023-06-24T04:30:29;7.03;;;5.87;;
7807;SDS011;3949;49.254;8.894;2023-06-24T04:32:55;6.30;;;5.23;;
7807;SDS011;3949;49.254;8.894;2023-06-24T04:35:21;6.57;;;6.07;;
7807;SDS011;3949;49.254;8.894;2023-06-24T04:37:47;6.27;;;5.77;;
7807;SDS011;3949;49.254;8.894;2023-06-24T04:40:17;6.80;;;6.10;;
7807;SDS011;3949;49.254;8.894;2023-06-24T04:42:43;6.53;;;5.93;;
7807;SDS011;3949;49.254;8.894;2023-06-24T04:45:09;6.47;;;5.87;;
7807;SDS011;3949;49.254;8.894;2023-06-24T04:47:35;7.17;;;6.13;;
7807;SDS011;3949;49.254;8.894;2023-06-24T04:50:02;6.00;;;5.40;;
7807;SDS011;3949;49.254;8.894;2023-06-24T04:52:28;5.90;;;5.40;;
7807;SDS011;3949;49.254;8.894;2023-06-24T04:54:54;6.60;;;6.00;;
7807;SDS011;3949;49.254;8.894;2023-06-24T04:57:23;7.03;;;6.33;;
7807;SDS011;3949;49.254;8.894;2023-06-24T04:59:49;6.87;;;6.30;;
7807;SDS011;3949;49.254;8.894;2023-06-24T05:02:15;6.83;;;6.23;;
7807;SDS011;3949;49.254;8.894;2023-06-24T05:04:41;7.77;;;6.97;;
7807;SDS011;3949;49.254;8.894;2023-06-24T05:07:07;6.40;;;5.90;;
7807;SDS011;3949;49.254;8.894;2023-06-24T05:09:33;6.20;;;5.60;;
7807;SDS011;3949;49.254;8.894;2023-06-24T05:12:02;7.63;;;6.77;;
7807;SDS011;3949;49.254;8.894;2023-06-24T05:14:28;6.73;;;6.13;;
7807;SDS011;3949;49.254;8.894;2023-06-24T05:16:54;6.97;;;6.37;;
7807;SDS011;3949;49.254;8.894;2023-06-24T05:19:20;6.20;;;5.70;;
7807;SDS011;3949;49.254;8.894;2023-06-24T05:21:46;6.40;;;5.80;;
7807;SDS011;3949;49.254;8.894;2023-06-24T05:24:12;6.23;;;5.63;;
7807;SDS011;3949;49.254;8.894;2023-06-24T05:26:38;6.40;;;5.80;;
7807;SDS011;3949;49.254;8.894;2023-06-24T05:29:04;6.10;;;5.50;;
7807;SDS011;3949;49.254;8.894;2023-06-24T05:31:30;6.37;;;5.77;;
7807;SDS011;3949;49.254;8.894;2023-06-24T05:33:56;6.10;;;5.50;;
7807;SDS011;3949;49.254;8.894;2023-06-24T05:36:22;5.57;;;5.17;;
7807;SDS011;3949;49.254;8.894;2023-06-24T05:38:48;6.80;;;5.67;;
7807;SDS011;3949;49.254;8.894;2023-06-24T05:41:14;6.77;;;6.17;;
7807;SDS011;3949;49.254;8.894;2023-06-24T05:43:42;7.80;;;6.00;;
7807;SDS011;3949;49.254;8.894;2023-06-24T05:46:08;7.87;;;6.60;;
7807;SDS011;3949;49.254;8.894;2023-06-24T05:48:34;6.50;;;5.90;;
7807;SDS011;3949;49.254;8.894;2023-06-24T05:51:00;6.53;;;6.03;;
7807;SDS011;3949;49.254;8.894;2023-06-24T05:53:26;6.83;;;6.13;;
7807;SDS011;3949;49.254;8.894;2023-06-24T05:55:52;7.00;;;6.40;;
7807;SDS011;3949;49.254;8.894;2023-06-24T05:58:18;6.27;;;5.73;;
7807;SDS011;3949;49.254;8.894;2023-06-24T06:00:44;5.43;;;5.03;;
7807;SDS011;3949;49.254;8.894;2023-06-24T06:03:10;6.33;;;5.73;;
7807;SDS011;3949;49.254;8.894;2023-06-24T06:05:36;5.87;;;5.37;;
7807;SDS011;3949;49.254;8.894;2023-06-24T06:08:02;5.70;;;5.20;;
7807;SDS011;3949;49.254;8.894;2023-06-24T06:10:28;5.47;;;4.97;;
7807;SDS011;3949;49.254;8.894;2023-06-24T06:12:55;5.27;;;4.77;;
7807;SDS011;3949;49.254;8.894;2023-06-24T06:15:21;5.80;;;5.30;;
7807;SDS011;3949;49.254;8.894;2023-06-24T06:17:47;5.03;;;4.60;;
7807;SDS011;3949;49.254;8.894;2023-06-24T06:20:13;5.13;;;4.63;;
7807;SDS011;3949;49.254;8.894;2023-06-24T06:22:39;5.23;;;4.80;;
7807;SDS011;3949;49.254;8.894;2023-06-24T06:25:05;6.30;;;5.00;;
7807;SDS011;3949;49.254;8.894;2023-06-24T06:27:31;5.47;;;4.97;;
7807;SDS011;3949;49.254;8.894;2023-06-24T06:29:57;5.27;;;4.77;;
7807;SDS011;3949;49.254;8.894;2023-06-24T06:32:23;4.87;;;4.37;;
7807;SDS011;3949;49.254;8.894;2023-06-24T06:34:49;5.40;;;4.90;;
7807;SDS011;3949;49.254;8.894;2023-06-24T06:37:15;5.87;;;5.27;;
7807;SDS011;3949;49.254;8.894;2023-06-24T06:39:41;5.50;;;4.93;;
7807;SDS011;3949;49.254;8.894;2023-06-24T06:42:07;5.50;;;4.90;;
7807;SDS011;3949;49.254;8.894;2023-06-24T06:44:33;4.83;;;4.40;;
7807;SDS011;3949;49.254;8.894;2023-06-24T06:46:59;7.10;;;6.23;;
7807;SDS011;3949;49.254;8.894;2023-06-24T06:49:25;5.23;;;4.73;;
7807;SDS011;3949;49.254;8.894;2023-06-24T06:51:54;4.73;;;4.33;;
7807;SDS011;3949;49.254;8.894;2023-06-24T06:54:20;5.00;;;4.50;;
7807;SDS011;3949;49.254;8.894;2023-06-24T06:56:46;4.90;;;4.40;;
7807;SDS011;3949;49.254;8.894;2023-06-24T06:59:12;5.50;;;5.00;;
7807;SDS011;3949;49.254;8.894;2023-06-24T07:01:38;11.97;;;8.57;;
7807;SDS011;3949;49.254;8.894;2023-06-24T07:04:04;5.50;;;4.93;;
7807;SDS011;3949;49.254;8.894;2023-06-24T07:06:30;6.13;;;4.00;;
7807;SDS011;3949;49.254;8.894;2023-06-24T07:08:57;4.90;;;4.40;;
7807;SDS011;3949;49.254;8.894;2023-06-24T07:11:23;5.57;;;4.90;;
7807;SDS011;3949;49.254;8.894;2023-06-24T07:13:50;4.50;;;4.10;;
7807;SDS011;3949;49.254;8.894;2023-06-24T07:16:17;5.00;;;4.60;;
7807;SDS011;3949;49.254;8.894;2023-06-24T07:18:43;5.97;;;4.73;;
7807;SDS011;3949;49.254;8.894;2023-06-24T07:21:09;5.23;;;4.50;;
7807;SDS011;3949;49.254;8.894;2023-06-24T07:23:35;6.33;;;4.60;;
7807;SDS011;3949;49.254;8.894;2023-06-24T07:26:01;4.60;;;4.20;;
7807;SDS011;3949;49.254;8.894;2023-06-24T07:28:27;5.30;;;4.90;;
7807;SDS011;3949;49.254;8.894;2023-06-24T07:30:53;5.03;;;4.63;;
7807;SDS011;3949;49.254;8.894;2023-06-24T07:33:19;7.03;;;6.43;;
7807;SDS011;3949;49.254;8.894;2023-06-24T07:35:45;5.93;;;5.10;;
7807;SDS011;3949;49.254;8.894;2023-06-24T07:38:11;4.70;;;4.30;;
7807;SDS011;3949;49.254;8.894;2023-06-24T07:40:37;5.67;;;4.77;;
7807;SDS011;3949;49.254;8.894;2023-06-24T07:43:03;4.60;;;4.10;;
7807;SDS011;3949;49.254;8.894;2023-06-24T07:45:29;4.37;;;3.97;;
7807;SDS011;3949;49.254;8.894;2023-06-24T07:47:55;6.17;;;5.50;;
7807;SDS011;3949;49.254;8.894;2023-06-24T07:50:21;5.50;;;5.00;;
7807;SDS011;3949;49.254;8.894;2023-06-24T07:52:47;5.13;;;4.63;;
7807;SDS011;3949;49.254;8.894;2023-06-24T07:55:13;5.93;;;4.37;;
7807;SDS011;3949;49.254;8.894;2023-06-24T07:57:39;5.17;;;4.67;;
7807;SDS011;3949;49.254;8.894;2023-06-24T08:00:08;5.30;;;4.80;;
7807;SDS011;3949;49.254;8.894;2023-06-24T08:02:36;4.50;;;4.10;;
7807;SDS011;3949;49.254;8.894;2023-06-24T08:05:02;4.53;;;4.17;;
7807;SDS011;3949;49.254;8.894;2023-06-24T08:07:28;3.90;;;3.60;;
7807;SDS011;3949;49.254;8.894;2023-06-24T08:09:54;4.37;;;3.97;;
7807;SDS011;3949;49.254;8.894;2023-06-24T08:12:20;4.27;;;3.97;;
7807;SDS011;3949;49.254;8.894;2023-06-24T08:14:45;7.87;;;7.07;;
7807;SDS011;3949;49.254;8.894;2023-06-24T08:17:11;5.67;;;4.40;;
7807;SDS011;3949;49.254;8.894;2023-06-24T08:19:37;4.30;;;3.77;;
7807;SDS011;3949;49.254;8.894;2023-06-24T08:22:04;3.83;;;3.50;;
7807;SDS011;3949;49.254;8.894;2023-06-24T08:24:30;4.17;;;3.80;;
7807;SDS011;3949;49.254;8.894;2023-06-24T08:26:57;4.10;;;3.80;;
7807;SDS011;3949;49.254;8.894;2023-06-24T08:29:23;4.40;;;3.83;;
7807;SDS011;3949;49.254;8.894;2023-06-24T08:31:49;3.70;;;3.40;;
7807;SDS011;3949;49.254;8.894;2023-06-24T08:34:15;4.17;;;3.77;;
7807;SDS011;3949;49.254;8.894;2023-06-24T08:36:41;4.65;;;4.25;;
7807;SDS011;3949;49.254;8.894;2023-06-24T08:39:09;4.55;;;3.97;;
7807;SDS011;3949;49.254;8.894;2023-06-24T08:41:35;4.55;;;4.18;;
7807;SDS011;3949;49.254;8.894;2023-06-24T08:44:02;3.53;;;3.28;;
7807;SDS011;3949;49.254;8.894;2023-06-24T08:46:28;3.63;;;3.33;;
7807;SDS011;3949;49.254;8.894;2023-06-24T08:49:15;4.30;;;3.60;;
7807;SDS011;3949;49.254;8.894;2023-06-24T08:51:42;3.70;;;3.40;;
7807;SDS011;3949;49.254;8.894;2023-06-24T08:54:11;3.85;;;3.55;;
7807;SDS011;3949;49.254;8.894;2023-06-24T08:56:37;3.75;;;3.45;;
7807;SDS011;3949;49.254;8.894;2023-06-24T08:59:05;3.78;;;3.45;;
7807;SDS011;3949;49.254;8.894;2023-06-24T09:01:31;3.75;;;3.47;;
7807;SDS011;3949;49.254;8.894;2023-06-24T09:03:57;3.95;;;3.10;;
7807;SDS011;3949;49.254;8.894;2023-06-24T09:06:23;3.25;;;3.00;;
7807;SDS011;3949;49.254;8.894;2023-06-24T09:08:52;3.60;;;3.38;;
7807;SDS011;3949;49.254;8.894;2023-06-24T09:11:22;5.15;;;4.65;;
7807;SDS011;3949;49.254;8.894;2023-06-24T09:13:58;3.58;;;3.28;;
7807;SDS011;3949;49.254;8.894;2023-06-24T09:16:24;3.90;;;3.60;;
7807;SDS011;3949;49.254;8.894;2023-06-24T09:18:50;4.97;;;4.57;;
7807;SDS011;3949;49.254;8.894;2023-06-24T09:21:23;3.92;;;3.63;;
7807;SDS011;3949;49.254;8.894;2023-06-24T09:23:56;4.72;;;4.32;;
7807;SDS011;3949;49.254;8.894;2023-06-24T09:26:26;5.13;;;4.60;;
7807;SDS011;3949;49.254;8.894;2023-06-24T09:28:53;4.00;;;3.70;;
7807;SDS011;3949;49.254;8.894;2023-06-24T09:31:19;4.43;;;4.03;;
7807;SDS011;3949;49.254;8.894;2023-06-24T09:33:48;4.10;;;3.70;;
7807;SDS011;3949;49.254;8.894;2023-06-24T09:36:14;3.60;;;3.30;;
7807;SDS011;3949;49.254;8.894;2023-06-24T09:38:41;3.72;;;3.42;;
7807;SDS011;3949;49.254;8.894;2023-06-24T09:41:08;3.90;;;3.60;;
7807;SDS011;3949;49.254;8.894;2023-06-24T09:43:34;4.65;;;4.10;;
7807;SDS011;3949;49.254;8.894;2023-06-24T09:46:02;3.70;;;3.40;;
7807;SDS011;3949;49.254;8.894;2023-06-24T09:48:28;3.88;;;3.58;;
7807;SDS011;3949;49.254;8.894;2023-06-24T09:50:55;3.60;;;3.30;;
7807;SDS011;3949;49.254;8.894;2023-06-24T09:53:22;3.58;;;3.38;;
7807;SDS011;3949;49.254;8.894;2023-06-24T09:55:48;4.03;;;3.72;;
7807;SDS011;3949;49.254;8.894;2023-06-24T09:58:15;3.20;;;3.00;;
7807;SDS011;3949;49.254;8.894;2023-06-24T10:00:42;3.72;;;3.53;;
7807;SDS011;3949;49.254;8.894;2023-06-24T10:03:08;3.13;;;2.92;;
7807;SDS011;3949;49.254;8.894;2023-06-24T10:05:34;3.95;;;3.53;;
7807;SDS011;3949;49.254;8.894;2023-06-24T10:08:00;3.60;;;3.38;;
7807;SDS011;3949;49.254;8.894;2023-06-24T10:10:26;4.53;;;4.13;;
7807;SDS011;3949;49.254;8.894;2023-06-24T10:12:54;3.95;;;3.70;;
7807;SDS011;3949;49.254;8.894;2023-06-24T10:15:21;4.10;;;3.70;;
7807;SDS011;3949;49.254;8.894;2023-06-24T10:17:47;4.30;;;3.97;;
7807;SDS011;3949;49.254;8.894;2023-06-24T10:20:17;4.78;;;3.50;;
7807;SDS011;3949;49.254;8.894;2023-06-24T10:22:50;4.28;;;3.38;;
7807;SDS011;3949;49.254;8.894;2023-06-24T10:25:16;3.45;;;2.97;;
7807;SDS011;3949;49.254;8.894;2023-06-24T10:27:43;3.58;;;3.28;;
7807;SDS011;3949;49.254;8.894;2023-06-24T10:30:18;3.88;;;3.63;;
7807;SDS011;3949;49.254;8.894;2023-06-24T10:32:44;3.67;;;3.38;;
7807;SDS011;3949;49.254;8.894;2023-06-24T10:35:21;3.88;;;3.58;;
7807;SDS011;3949;49.254;8.894;2023-06-24T10:37:55;3.42;;;3.13;;
7807;SDS011;3949;49.254;8.894;2023-06-24T10:40:34;3.70;;;3.40;;
7807;SDS011;3949;49.254;8.894;2023-06-24T10:43:01;4.30;;;3.97;;
7807;SDS011;3949;49.254;8.894;2023-06-24T10:45:27;3.60;;;3.35;;
7807;SDS011;3949;49.254;8.894;2023-06-24T10:47:53;3.60;;;3.30;;
7807;SDS011;3949;49.254;8.894;2023-06-24T10:50:21;4.63;;;4.22;;
7807;SDS011;3949;49.254;8.894;2023-06-24T10:52:51;3.50;;;3.20;;
7807;SDS011;3949;49.254;8.894;2023-06-24T10:55:23;3.63;;;3.33;;
7807;SDS011;3949;49.254;8.894;2023-06-24T10:57:50;3.55;;;3.25;;
7807;SDS011;3949;49.254;8.894;2023-06-24T11:00:16;3.67;;;3.38;;
7807;SDS011;3949;49.254;8.894;2023-06-24T11:02:43;3.88;;;3.25;;
7807;SDS011;3949;49.254;8.894;2023-06-24T11:05:09;3.83;;;3.50;;
7807;SDS011;3949;49.254;8.894;2023-06-24T11:07:36;3.80;;;3.50;;
7807;SDS011;3949;49.254;8.894;2023-06-24T11:10:04;4.28;;;3.88;;
7807;SDS011;3949;49.254;8.894;2023-06-24T11:12:31;4.15;;;3.75;;
7807;SDS011;3949;49.254;8.894;2023-06-24T11:14:58;4.57;;;3.75;;
7807;SDS011;3949;49.254;8.894;2023-06-24T11:17:24;3.85;;;3.55;;
7807;SDS011;3949;49.254;8.894;2023-06-24T11:19:51;3.20;;;3.00;;
7807;SDS011;3949;49.254;8.894;2023-06-24T11:22:17;3.58;;;3.28;;
7807;SDS011;3949;49.254;8.894;2023-06-24T11:24:43;3.42;;;3.13;;
7807;SDS011;3949;49.254;8.894;2023-06-24T11:27:09;3.20;;;3.00;;
7807;SDS011;3949;49.254;8.894;2023-06-24T11:29:35;3.72;;;3.42;;
7807;SDS011;3949;49.254;8.894;2023-06-24T11:32:02;3.47;;;3.17;;
7807;SDS011;3949;49.254;8.894;2023-06-24T11:34:28;3.28;;;3.08;;
7807;SDS011;3949;49.254;8.894;2023-06-24T11:36:56;3.70;;;3.30;;
7807;SDS011;3949;49.254;8.894;2023-06-24T11:41:48;3.60;;;3.33;;
7807;SDS011;3949;49.254;8.894;2023-06-24T11:44:14;4.70;;;4.30;;
7807;SDS011;3949;49.254;8.894;2023-06-24T11:46:40;4.28;;;3.88;;
7807;SDS011;3949;49.254;8.894;2023-06-24T11:49:06;3.35;;;3.05;;
7807;SDS011;3949;49.254;8.894;2023-06-24T11:51:33;3.65;;;3.35;;
7807;SDS011;3949;49.254;8.894;2023-06-24T11:53:59;3.20;;;3.00;;
7807;SDS011;3949;49.254;8.894;2023-06-24T11:56:35;2.97;;;2.78;;
7807;SDS011;3949;49.254;8.894;2023-06-24T11:59:20;3.10;;;2.80;;
7807;SDS011;3949;49.254;8.894;2023-06-24T12:01:58;3.08;;;2.83;;
7807;SDS011;3949;49.254;8.894;2023-06-24T12:04:28;3.42;;;3.15;;
7807;SDS011;3949;49.254;8.894;2023-06-24T12:06:54;3.10;;;2.90;;
7807;SDS011;3949;49.254;8.894;2023-06-24T12:09:20;3.40;;;3.10;;
7807;SDS011;3949;49.254;8.894;2023-06-24T12:11:46;3.78;;;2.80;;
7807;SDS011;3949;49.254;8.894;2023-06-24T12:14:12;3.30;;;3.00;;
7807;SDS011;3949;49.254;8.894;2023-06-24T12:16:38;3.30;;;3.00;;
7807;SDS011;3949;49.254;8.894;2023-06-24T12:19:05;3.60;;;3.30;;
7807;SDS011;3949;49.254;8.894;2023-06-24T12:21:31;3.47;;;3.20;;
7807;SDS011;3949;49.254;8.894;2023-06-24T12:23:57;3.45;;;3.15;;
7807;SDS011;3949;49.254;8.894;2023-06-24T12:26:23;3.50;;;3.20;;
7807;SDS011;3949;49.254;8.894;2023-06-24T12:28:49;3.40;;;3.20;;
7807;SDS011;3949;49.254;8.894;2023-06-24T12:31:15;3.35;;;3.15;;
7807;SDS011;3949;49.254;8.894;2023-06-24T12:33:41;3.20;;;3.00;;
7807;SDS011;3949;49.254;8.894;2023-06-24T12:36:07;2.83;;;2.63;;
7807;SDS011;3949;49.254;8.894;2023-06-24T12:38:33;3.50;;;3.20;;
7807;SDS011;3949;49.254;8.894;2023-06-24T12:41:00;2.97;;;2.78;;
7807;SDS011;3949;49.254;8.894;2023-06-24T12:43:27;3.20;;;3.00;;
7807;SDS011;3949;49.254;8.894;2023-06-24T12:45:52;3.38;;;3.13;;
7807;SDS011;3949;49.254;8.894;2023-06-24T12:48:18;2.83;;;2.63;;
7807;SDS011;3949;49.254;8.894;2023-06-24T12:50:44;3.97;;;3.33;;
7807;SDS011;3949;49.254;8.894;2023-06-24T12:53:12;3.47;;;3.28;;
7807;SDS011;3949;49.254;8.894;2023-06-24T12:55:39;3.28;;;3.08;;
7807;SDS011;3949;49.254;8.894;2023-06-24T12:58:05;3.15;;;2.95;;
7807;SDS011;3949;49.254;8.894;2023-06-24T13:00:31;3.40;;;3.10;;
7807;SDS011;3949;49.254;8.894;2023-06-24T13:03:15;3.38;;;3.08;;
7807;SDS011;3949;49.254;8.894;2023-06-24T13:05:47;3.42;;;3.13;;
7807;SDS011;3949;49.254;8.894;2023-06-24T13:08:13;3.17;;;2.97;;
7807;SDS011;3949;49.254;8.894;2023-06-24T13:10:39;3.22;;;3.03;;
7807;SDS011;3949;49.254;8.894;2023-06-24T13:13:06;3.63;;;3.33;;
7807;SDS011;3949;49.254;8.894;2023-06-24T13:15:32;3.35;;;3.05;;
7807;SDS011;3949;49.254;8.894;2023-06-24T13:17:57;3.08;;;2.88;;
7807;SDS011;3949;49.254;8.894;2023-06-24T13:20:23;3.30;;;3.00;;
7807;SDS011;3949;49.254;8.894;2023-06-24T13:22:49;3.70;;;3.40;;
7807;SDS011;3949;49.254;8.894;2023-06-24T13:25:15;3.22;;;3.03;;
7807;SDS011;3949;49.254;8.894;2023-06-24T13:27:41;3.70;;;3.10;;
7807;SDS011;3949;49.254;8.894;2023-06-24T13:30:07;3.22;;;3.03;;
7807;SDS011;3949;49.254;8.894;2023-06-24T13:32:34;3.33;;;3.03;;
7807;SDS011;3949;49.254;8.894;2023-06-24T13:35:00;2.90;;;2.70;;
7807;SDS011;3949;49.254;8.894;2023-06-24T13:37:26;3.30;;;3.00;;
7807;SDS011;3949;49.254;8.894;2023-06-24T13:39:52;2.90;;;2.70;;
7807;SDS011;3949;49.254;8.894;2023-06-24T13:42:18;2.90;;;2.70;;
7807;SDS011;3949;49.254;8.894;2023-06-24T13:44:44;3.50;;;3.20;;
7807;SDS011;3949;49.254;8.894;2023-06-24T13:47:10;3.45;;;3.15;;
7807;SDS011;3949;49.254;8.894;2023-06-24T13:49:35;3.35;;;3.15;;
7807;SDS011;3949;49.254;8.894;2023-06-24T13:52:01;3.42;;;2.90;;
7807;SDS011;3949;49.254;8.894;2023-06-24T13:54:27;3.50;;;3.20;;
7807;SDS011;3949;49.254;8.894;2023-06-24T13:56:57;3.35;;;3.10;;
7807;SDS011;3949;49.254;8.894;2023-06-24T13:59:23;3.65;;;3.35;;
7807;SDS011;3949;49.254;8.894;2023-06-24T14:01:49;3.13;;;2.92;;
7807;SDS011;3949;49.254;8.894;2023-06-24T14:04:15;3.20;;;2.90;;
7807;SDS011;3949;49.254;8.894;2023-06-24T14:06:41;3.33;;;3.05;;
7807;SDS011;3949;49.254;8.894;2023-06-24T14:09:08;3.03;;;2.83;;
7807;SDS011;3949;49.254;8.894;2023-06-24T14:11:34;2.92;;;2.70;;
7807;SDS011;3949;49.254;8.894;2023-06-24T14:14:00;3.20;;;3.00;;
7807;SDS011;3949;49.254;8.894;2023-06-24T14:16:26;3.05;;;2.85;;
7807;SDS011;3949;49.254;8.894;2023-06-24T14:18:52;3.15;;;2.80;;
7807;SDS011;3949;49.254;8.894;2023-06-24T14:21:18;3.38;;;3.08;;
7807;SDS011;3949;49.254;8.894;2023-06-24T14:23:44;3.30;;;3.08;;
7807;SDS011;3949;49.254;8.894;2023-06-24T14:26:10;2.88;;;2.67;;
7807;SDS011;3949;49.254;8.894;2023-06-24T14:28:36;3.00;;;2.80;;
7807;SDS011;3949;49.254;8.894;2023-06-24T14:31:02;3.40;;;3.15;;
7807;SDS011;3949;49.254;8.894;2023-06-24T14:33:28;3.17;;;2.97;;
7807;SDS011;3949;49.254;8.894;2023-06-24T14:35:54;3.38;;;3.15;;
7807;SDS011;3949;49.254;8.894;2023-06-24T14:38:20;3.10;;;2.88;;
7807;SDS011;3949;49.254;8.894;2023-06-24T14:40:46;3.20;;;3.00;;
7807;SDS011;3949;49.254;8.894;2023-06-24T14:43:12;3.28;;;2.92;;
7807;SDS011;3949;49.254;8.894;2023-06-24T14:45:38;3.10;;;2.90;;
7807;SDS011;3949;49.254;8.894;2023-06-24T14:48:04;3.35;;;2.90;;
7807;SDS011;3949;49.254;8.894;2023-06-24T14:50:30;3.30;;;3.00;;
7807;SDS011;3949;49.254;8.894;2023-06-24T14:52:56;3.28;;;3.00;;
7807;SDS011;3949;49.254;8.894;2023-06-24T14:55:22;3.45;;;3.15;;
7807;SDS011;3949;49.254;8.894;2023-06-24T14:57:48;3.63;;;3.33;;
7807;SDS011;3949;49.254;8.894;2023-06-24T15:00:14;3.13;;;2.92;;
7807;SDS011;3949;49.254;8.894;2023-06-24T15:02:40;3.50;;;3.30;;
7807;SDS011;3949;49.254;8.894;2023-06-24T15:05:06;3.22;;;3.00;;
7807;SDS011;3949;49.254;8.894;2023-06-24T15:07:32;3.15;;;2.95;;
7807;SDS011;3949;49.254;8.894;2023-06-24T15:09:58;3.30;;;3.00;;
7807;SDS011;3949;49.254;8.894;2023-06-24T15:12:24;2.83;;;2.63;;
7807;SDS011;3949;49.254;8.894;2023-06-24T15:14:50;3.13;;;2.85;;
7807;SDS011;3949;49.254;8.894;2023-06-24T15:17:16;3.47;;;3.20;;
7807;SDS011;3949;49.254;8.894;2023-06-24T15:19:42;3.42;;;3.15;;
7807;SDS011;3949;49.254;8.894;2023-06-24T15:22:08;4.18;;;3.78;;
7807;SDS011;3949;49.254;8.894;2023-06-24T15:24:34;3.40;;;3.10;;
7807;SDS011;3949;49.254;8.894;2023-06-24T15:27:00;3.00;;;2.80;;